Time;durP1;ratioP1;P1;durP2;ratioP2;P2;SDS_P1;SDS_P2;PMS_P1;PMS_P2;Temp;Humidity;BMP_temperature;BMP_pressure;BME280_temperature;BME280_humidity;BME280_pressure;Samples;Min_cycle;Max_cycle;Signal;HPM_P1;HPM_P2
2023/06/30 00:01:24;;;;;;;11.60;2.67;;;17.50;99.90;;;;;;5094149;23;20177;-88
2023/06/30 00:03:24;;;;;;;9.63;2.20;;;17.40;99.90;;;;;;5119176;23;20148;-95
2023/06/30 00:05:25;;;;;;;8.15;2.38;;;17.50;99.90;;;;;;5094816;23;20157;-88
2023/06/30 00:07:26;;;;;;;11.90;2.65;;;17.30;99.90;;;;;;5119085;23;20202;-88
2023/06/30 00:09:28;;;;;;;11.05;2.78;;;17.40;99.90;;;;;;5118761;23;20164;-88
2023/06/30 00:11:28;;;;;;;6.68;2.20;;;17.40;99.90;;;;;;5094022;23;20184;-88
2023/06/30 00:13:29;;;;;;;12.23;2.17;;;17.30;99.90;;;;;;5118946;23;20164;-88
2023/06/30 00:15:30;;;;;;;8.75;2.72;;;17.30;99.90;;;;;;5094699;23;20222;-88
2023/06/30 00:17:30;;;;;;;6.57;2.17;;;17.20;99.90;;;;;;5094209;23;20165;-88
2023/06/30 00:19:31;;;;;;;16.13;2.50;;;17.20;99.90;;;;;;5094490;23;20156;-87
2023/06/30 00:21:32;;;;;;;6.88;1.73;;;17.30;99.90;;;;;;5094396;23;20159;-87
2023/06/30 00:23:33;;;;;;;8.43;2.10;;;17.30;99.90;;;;;;5119466;23;20171;-88
2023/06/30 00:25:34;;;;;;;10.85;2.10;;;17.30;99.90;;;;;;5093941;23;20161;-88
2023/06/30 00:27:34;;;;;;;6.93;1.70;;;17.30;99.90;;;;;;5118966;23;20595;-87
2023/06/30 00:29:35;;;;;;;11.52;2.15;;;17.20;99.90;;;;;;5094361;23;20610;-88
2023/06/30 00:31:36;;;;;;;6.07;1.92;;;17.40;99.90;;;;;;5119181;23;20160;-88
2023/06/30 00:33:36;;;;;;;8.45;2.17;;;17.40;99.90;;;;;;5118897;23;20183;-88
2023/06/30 00:35:37;;;;;;;10.52;2.35;;;17.30;99.90;;;;;;5119143;23;20140;-87
2023/06/30 00:37:38;;;;;;;9.90;2.10;;;17.30;99.90;;;;;;5094620;23;20176;-88
2023/06/30 00:39:38;;;;;;;6.88;2.33;;;17.30;99.90;;;;;;5094009;23;20206;-88
2023/06/30 00:41:39;;;;;;;10.68;2.25;;;17.20;99.90;;;;;;5095392;23;20161;-88
2023/06/30 00:43:40;;;;;;;11.60;2.92;;;17.20;99.90;;;;;;5094541;23;20152;-88
2023/06/30 00:45:41;;;;;;;7.88;2.10;;;17.20;99.90;;;;;;5093942;23;20153;-88
2023/06/30 00:47:41;;;;;;;10.75;2.20;;;17.10;99.90;;;;;;5118459;23;20603;-88
2023/06/30 00:49:42;;;;;;;9.68;2.17;;;17.00;99.90;;;;;;5118524;23;20168;-87
2023/06/30 00:51:43;;;;;;;7.43;1.70;;;16.90;99.90;;;;;;5118971;23;20164;-95
2023/06/30 00:53:44;;;;;;;8.50;2.08;;;16.80;99.90;;;;;;5094340;23;20203;-88
2023/06/30 00:55:45;;;;;;;10.77;2.10;;;16.90;99.90;;;;;;5094427;23;20160;-88
2023/06/30 00:57:45;;;;;;;7.43;1.70;;;16.90;99.90;;;;;;5118460;23;20639;-87
2023/06/30 00:59:46;;;;;;;15.02;2.30;;;16.80;99.90;;;;;;5094133;23;20157;-87
2023/06/30 01:02:02;;;;;;;11.82;1.88;;;17.00;99.90;;;;;;5093712;23;20156;-88
2023/06/30 01:04:18;;;;;;;11.48;2.42;;;17.00;99.90;;;;;;5094425;23;20567;-87
2023/06/30 01:06:18;;;;;;;11.60;2.05;;;17.10;99.90;;;;;;5093985;23;20153;-87
2023/06/30 01:08:37;;;;;;;8.02;2.22;;;17.20;99.90;;;;;;5118542;23;20247;-87
2023/06/30 01:10:41;;;;;;;12.65;2.63;;;16.90;99.90;;;;;;5093420;23;20562;-87
2023/06/30 01:12:43;;;;;;;7.60;1.88;;;16.90;99.90;;;;;;5093724;23;20153;-95
2023/06/30 01:14:47;;;;;;;7.93;2.20;;;17.00;99.90;;;;;;5144778;23;20151;-87
2023/06/30 01:16:48;;;;;;;7.53;1.63;;;16.70;99.90;;;;;;5118198;23;20156;-87
2023/06/30 01:18:53;;;;;;;10.52;2.10;;;16.80;99.90;;;;;;5118490;23;20180;-87
2023/06/30 01:20:55;;;;;;;9.85;2.60;;;16.90;99.90;;;;;;5094349;23;20192;-87
2023/06/30 01:23:01;;;;;;;15.63;2.30;;;16.80;99.90;;;;;;5093525;23;20253;-87
2023/06/30 01:25:08;;;;;;;9.15;2.08;;;16.70;99.90;;;;;;5118456;23;20156;-88
2023/06/30 01:27:12;;;;;;;12.38;2.65;;;16.70;99.90;;;;;;5118079;23;20187;-87
2023/06/30 01:29:13;;;;;;;9.40;2.45;;;16.60;99.90;;;;;;5118513;23;20187;-87
2023/06/30 01:31:14;;;;;;;10.65;2.60;;;16.60;99.90;;;;;;5118460;23;20204;-88
2023/06/30 01:33:16;;;;;;;10.25;2.40;;;16.50;99.90;;;;;;5094202;23;20657;-88
2023/06/30 01:35:16;;;;;;;10.52;2.40;;;16.50;99.90;;;;;;5118429;23;20156;-87
2023/06/30 01:37:17;;;;;;;8.50;2.35;;;16.30;99.90;;;;;;5093080;23;20177;-87
2023/06/30 01:39:18;;;;;;;8.57;2.70;;;16.20;99.90;;;;;;5093225;23;20168;-87
2023/06/30 01:41:20;;;;;;;8.95;2.38;;;16.40;99.90;;;;;;5093049;23;20244;-88
2023/06/30 01:43:21;;;;;;;21.55;3.10;;;16.30;99.90;;;;;;5117698;23;20604;-87
2023/06/30 01:45:25;;;;;;;11.63;2.58;;;16.20;99.90;;;;;;5118230;23;20153;-87
2023/06/30 01:47:26;;;;;;;12.18;2.67;;;16.20;99.90;;;;;;5118024;23;20148;-87
2023/06/30 01:49:28;;;;;;;8.85;2.75;;;15.90;99.90;;;;;;5093881;23;20172;-87
2023/06/30 01:51:29;;;;;;;12.20;2.83;;;15.80;99.90;;;;;;5118524;23;20184;-87
2023/06/30 01:53:29;;;;;;;7.57;2.85;;;15.80;99.90;;;;;;5093826;23;20163;-87
2023/06/30 01:55:32;;;;;;;11.63;3.20;;;15.80;99.90;;;;;;5093495;23;20157;-87
2023/06/30 01:57:32;;;;;;;9.75;2.70;;;15.90;99.90;;;;;;5093331;23;20255;-87
2023/06/30 01:59:33;;;;;;;10.65;3.03;;;15.80;99.90;;;;;;5118299;23;20164;-87
2023/06/30 02:01:34;;;;;;;13.32;3.50;;;15.70;99.90;;;;;;5093428;23;20153;-87
2023/06/30 02:03:35;;;;;;;17.27;3.28;;;15.50;99.90;;;;;;5093758;23;20164;-87
2023/06/30 02:05:36;;;;;;;10.73;3.58;;;15.40;99.90;;;;;;5093595;23;20157;-87
2023/06/30 02:07:36;;;;;;;11.32;3.08;;;15.30;99.90;;;;;;5093650;23;20201;-87
2023/06/30 02:09:40;;;;;;;9.57;3.60;;;15.40;99.90;;;;;;5118142;23;20529;-87
2023/06/30 02:11:41;;;;;;;16.35;3.70;;;15.50;99.90;;;;;;5093106;23;20172;-87
2023/06/30 02:13:42;;;;;;;11.93;3.28;;;15.30;99.90;;;;;;5093261;23;20160;-87
2023/06/30 02:15:42;;;;;;;14.70;3.40;;;15.40;99.90;;;;;;5093202;23;20520;-91
2023/06/30 02:17:43;;;;;;;10.27;3.30;;;15.30;99.90;;;;;;5093770;23;20228;-87
2023/06/30 02:19:44;;;;;;;12.80;3.60;;;15.40;99.90;;;;;;5118629;23;20156;-87
2023/06/30 02:21:44;;;;;;;13.52;3.55;;;15.40;99.90;;;;;;5118576;23;20584;-87
2023/06/30 02:23:45;;;;;;;11.48;3.63;;;15.20;99.90;;;;;;5119189;23;20152;-87
2023/06/30 02:25:49;;;;;;;17.80;3.60;;;15.20;99.90;;;;;;5093668;23;20148;-87
2023/06/30 02:27:50;;;;;;;11.00;3.50;;;15.20;99.90;;;;;;5093522;23;20727;-87
2023/06/30 02:29:53;;;;;;;14.27;3.85;;;15.20;99.90;;;;;;5144163;23;20198;-88
2023/06/30 02:31:53;;;;;;;15.57;3.53;;;15.10;99.90;;;;;;5117915;23;20234;-87
2023/06/30 02:33:56;;;;;;;17.92;3.47;;;15.30;99.90;;;;;;5118219;23;20140;-88
2023/06/30 02:35:56;;;;;;;14.95;3.70;;;15.20;99.90;;;;;;5118038;23;20163;-87
2023/06/30 02:37:57;;;;;;;7.78;3.30;;;15.20;99.90;;;;;;5117515;23;20168;-87
2023/06/30 02:39:58;;;;;;;12.07;3.00;;;15.30;99.90;;;;;;5118037;23;20160;-87
2023/06/30 02:41:59;;;;;;;10.93;3.38;;;15.30;99.90;;;;;;5117633;23;20673;-87
2023/06/30 02:43:59;;;;;;;12.98;3.75;;;15.30;99.90;;;;;;5143840;23;20148;-87
2023/06/30 02:46:00;;;;;;;9.93;3.20;;;15.30;99.90;;;;;;5093350;23;20211;-87
2023/06/30 02:48:02;;;;;;;12.13;3.33;;;15.20;99.90;;;;;;5142883;23;20171;-87
2023/06/30 02:50:05;;;;;;;11.13;3.38;;;15.20;99.90;;;;;;5119722;23;20175;-87
2023/06/30 02:52:08;;;;;;;10.02;3.88;;;15.20;99.90;;;;;;5094962;23;20156;-87
2023/06/30 02:54:09;;;;;;;15.48;3.78;;;15.20;99.90;;;;;;5095437;23;20145;-87
2023/06/30 02:56:10;;;;;;;13.25;3.88;;;15.10;99.90;;;;;;5095105;23;20157;-87
2023/06/30 02:58:12;;;;;;;12.88;3.55;;;15.00;99.90;;;;;;5120422;23;20179;-88
2023/06/30 03:00:13;;;;;;;12.93;3.38;;;15.10;99.90;;;;;;5119745;23;20148;-87
2023/06/30 03:02:14;;;;;;;8.23;3.90;;;15.00;99.90;;;;;;5094533;23;20159;-88
2023/06/30 03:04:16;;;;;;;16.38;3.83;;;14.80;99.90;;;;;;5095320;23;20357;-90
2023/06/30 03:06:19;;;;;;;11.43;3.58;;;14.60;99.90;;;;;;5095139;23;20626;-87
2023/06/30 03:08:20;;;;;;;7.70;3.33;;;14.60;99.90;;;;;;5094930;23;20228;-87
2023/06/30 03:10:23;;;;;;;12.15;3.78;;;14.80;99.90;;;;;;5095176;23;20272;-87
2023/06/30 03:12:23;;;;;;;11.55;3.80;;;14.80;99.90;;;;;;5094894;23;20156;-96
2023/06/30 03:14:24;;;;;;;13.05;4.00;;;14.80;99.90;;;;;;5094716;23;20160;-87
2023/06/30 03:16:25;;;;;;;10.57;3.55;;;14.80;99.90;;;;;;5119441;23;20148;-86
2023/06/30 03:18:26;;;;;;;7.22;3.33;;;14.80;99.90;;;;;;5094822;23;20177;-88
2023/06/30 03:20:26;;;;;;;11.52;3.50;;;14.80;99.90;;;;;;5095341;23;20227;-87
2023/06/30 03:22:27;;;;;;;10.80;3.70;;;14.80;99.90;;;;;;5119453;23;20243;-87
2023/06/30 03:24:28;;;;;;;12.80;3.70;;;14.70;99.90;;;;;;5095045;23;20488;-87
2023/06/30 03:26:29;;;;;;;15.02;3.65;;;14.90;99.90;;;;;;5118892;23;20182;-87
2023/06/30 03:28:29;;;;;;;10.07;3.15;;;14.60;99.90;;;;;;5094772;23;20607;-88
2023/06/30 03:30:30;;;;;;;10.20;3.30;;;14.50;99.90;;;;;;5095021;23;20192;-88
2023/06/30 03:32:32;;;;;;;10.15;3.00;;;14.50;99.90;;;;;;5094632;23;20188;-87
2023/06/30 03:34:32;;;;;;;9.23;3.42;;;14.50;99.90;;;;;;5094344;23;20165;-87
2023/06/30 03:36:33;;;;;;;14.38;2.95;;;14.40;99.90;;;;;;5094408;23;20152;-88
2023/06/30 03:38:35;;;;;;;16.25;3.70;;;14.40;99.90;;;;;;5119113;23;20618;-87
2023/06/30 03:40:35;;;;;;;12.60;3.40;;;14.30;99.90;;;;;;5119212;23;20148;-86
2023/06/30 03:42:36;;;;;;;9.65;3.47;;;14.30;99.90;;;;;;5094524;23;20152;-87
2023/06/30 03:44:37;;;;;;;11.77;3.03;;;14.30;99.90;;;;;;5094472;23;20164;-87
2023/06/30 03:46:40;;;;;;;11.80;3.65;;;14.30;99.90;;;;;;5094735;23;20153;-87
2023/06/30 03:48:41;;;;;;;9.98;3.28;;;14.40;99.90;;;;;;5143854;23;20172;-87
2023/06/30 03:50:43;;;;;;;11.50;3.38;;;14.40;99.90;;;;;;5094354;23;20184;-88
2023/06/30 03:52:44;;;;;;;15.68;3.38;;;14.40;99.90;;;;;;5094431;23;20161;-88
2023/06/30 03:54:46;;;;;;;14.43;3.58;;;14.40;99.90;;;;;;5119086;23;20175;-88
2023/06/30 03:56:47;;;;;;;13.18;3.50;;;14.20;99.90;;;;;;5094177;23;20157;-87
2023/06/30 03:58:49;;;;;;;13.95;3.00;;;14.40;99.90;;;;;;5094289;23;20173;-87
2023/06/30 04:00:50;;;;;;;12.02;3.80;;;14.60;99.90;;;;;;5094478;23;20485;-88
2023/06/30 04:02:50;;;;;;;13.32;4.32;;;14.70;99.90;;;;;;5094472;23;20156;-88
2023/06/30 04:04:51;;;;;;;12.90;4.50;;;15.10;99.90;;;;;;5094375;23;20204;-87
2023/06/30 04:06:52;;;;;;;15.23;4.90;;;15.10;99.90;;;;;;5119012;23;20148;-87
2023/06/30 04:08:52;;;;;;;20.17;6.00;;;15.10;99.90;;;;;;5094419;23;20176;-88
2023/06/30 04:10:53;;;;;;;19.67;6.10;;;14.90;99.90;;;;;;5094127;23;20280;-88
2023/06/30 04:12:54;;;;;;;18.63;5.95;;;14.90;99.90;;;;;;5094304;23;20233;-88
2023/06/30 04:14:54;;;;;;;17.33;6.38;;;14.90;99.90;;;;;;5143916;23;20644;-88
2023/06/30 04:16:55;;;;;;;15.43;5.85;;;15.00;99.90;;;;;;5145241;23;20139;-87
2023/06/30 04:18:56;;;;;;;21.48;6.30;;;15.10;99.90;;;;;;5094426;23;20492;-87
2023/06/30 04:20:57;;;;;;;29.48;6.95;;;15.10;99.90;;;;;;5118504;23;20183;-88
2023/06/30 04:22:57;;;;;;;13.95;5.90;;;15.10;99.90;;;;;;5118639;23;20156;-88
2023/06/30 04:24:59;;;;;;;18.52;6.18;;;15.10;99.90;;;;;;5093939;23;20153;-87
2023/06/30 04:26:59;;;;;;;21.45;5.60;;;15.20;99.90;;;;;;5094126;23;20152;-88
2023/06/30 04:29:00;;;;;;;12.32;4.72;;;15.10;99.90;;;;;;5118795;23;20508;-87
2023/06/30 04:31:03;;;;;;;12.43;4.90;;;15.10;99.90;;;;;;5094017;23;20196;-87
2023/06/30 04:33:04;;;;;;;15.07;4.72;;;15.10;99.90;;;;;;5094634;23;20152;-87
2023/06/30 04:35:05;;;;;;;12.07;5.25;;;15.20;99.90;;;;;;5118952;23;20152;-87
2023/06/30 04:37:06;;;;;;;9.88;4.70;;;15.20;99.90;;;;;;5094290;23;20144;-87
2023/06/30 04:39:07;;;;;;;8.73;4.28;;;15.20;99.90;;;;;;5094093;23;20185;-87
2023/06/30 04:41:07;;;;;;;11.20;4.57;;;15.20;99.90;;;;;;5094044;23;20149;-88
2023/06/30 04:43:12;;;;;;;14.07;4.53;;;15.30;99.90;;;;;;5094024;23;20497;-87
2023/06/30 04:45:12;;;;;;;11.27;4.38;;;15.30;99.90;;;;;;5094013;23;20231;-87
2023/06/30 04:47:15;;;;;;;19.10;4.60;;;15.40;99.90;;;;;;5118561;23;20185;-87
2023/06/30 04:49:16;;;;;;;14.00;4.93;;;15.50;99.90;;;;;;5093884;23;20284;-87
2023/06/30 04:51:18;;;;;;;17.25;5.13;;;15.50;99.90;;;;;;5118648;23;20183;-87
2023/06/30 04:53:19;;;;;;;11.80;4.72;;;15.50;99.90;;;;;;5093929;23;20156;-87
2023/06/30 04:55:19;;;;;;;9.60;4.40;;;15.50;99.90;;;;;;5094049;23;20188;-86
2023/06/30 04:57:21;;;;;;;14.00;4.55;;;15.50;99.90;;;;;;5093556;23;20157;-87
2023/06/30 04:59:22;;;;;;;14.93;4.80;;;15.60;99.90;;;;;;5093911;23;20224;-86
2023/06/30 05:01:22;;;;;;;12.25;4.60;;;15.60;99.90;;;;;;5118534;23;20156;-87
2023/06/30 05:03:23;;;;;;;9.90;4.63;;;15.70;99.90;;;;;;5118366;23;20154;-87
2023/06/30 05:05:24;;;;;;;14.65;5.28;;;15.70;99.90;;;;;;5093696;23;20153;-87
2023/06/30 05:07:24;;;;;;;12.15;5.20;;;15.70;99.90;;;;;;5118066;23;20662;-87
2023/06/30 05:09:25;;;;;;;11.15;4.55;;;15.80;99.90;;;;;;5093800;23;20170;-87
2023/06/30 05:11:26;;;;;;;12.55;5.45;;;15.80;99.90;;;;;;5117931;23;20180;-87
2023/06/30 05:13:27;;;;;;;17.40;5.18;;;15.90;99.90;;;;;;5093694;23;20552;-88
2023/06/30 05:15:27;;;;;;;13.50;5.53;;;15.90;99.90;;;;;;5117991;23;20157;-88
2023/06/30 05:17:28;;;;;;;9.55;5.18;;;16.00;99.90;;;;;;5093792;23;20520;-88
2023/06/30 05:19:29;;;;;;;15.55;5.40;;;16.00;99.90;;;;;;5093332;23;20471;-87
2023/06/30 05:21:29;;;;;;;13.82;5.32;;;16.10;99.90;;;;;;5118373;23;20233;-87
2023/06/30 05:23:30;;;;;;;10.93;5.10;;;16.10;99.90;;;;;;5093627;23;20540;-87
2023/06/30 05:25:31;;;;;;;13.15;5.18;;;16.20;99.90;;;;;;5118243;23;20199;-87
2023/06/30 05:27:31;;;;;;;15.88;5.47;;;16.20;99.90;;;;;;5093636;23;20169;-87
2023/06/30 05:29:33;;;;;;;16.63;6.30;;;16.30;99.90;;;;;;5094229;23;20546;-87
2023/06/30 05:31:33;;;;;;;16.98;6.32;;;16.30;99.90;;;;;;5094211;23;20527;-88
2023/06/30 05:33:34;;;;;;;14.68;5.70;;;16.30;99.90;;;;;;5118624;23;20231;-87
2023/06/30 05:35:35;;;;;;;16.13;6.03;;;16.60;99.90;;;;;;5094007;23;20152;-87
2023/06/30 05:37:36;;;;;;;20.55;5.85;;;16.50;99.90;;;;;;5094223;23;20215;-87
2023/06/30 05:39:37;;;;;;;16.60;6.13;;;16.60;99.90;;;;;;5118401;23;20325;-87
2023/06/30 05:41:38;;;;;;;15.10;5.90;;;16.60;99.90;;;;;;5118368;23;20144;-88
2023/06/30 05:43:40;;;;;;;16.17;5.68;;;16.60;99.90;;;;;;5093721;23;20228;-88
2023/06/30 05:45:40;;;;;;;11.93;5.85;;;16.70;99.90;;;;;;5093560;23;20604;-88
2023/06/30 05:47:41;;;;;;;11.82;5.03;;;16.60;99.90;;;;;;5118139;23;20224;-87
2023/06/30 05:49:42;;;;;;;13.00;5.18;;;16.90;99.90;;;;;;5093431;23;20164;-87
2023/06/30 05:51:43;;;;;;;17.58;5.22;;;16.80;99.90;;;;;;5093439;23;20578;-87
2023/06/30 05:53:43;;;;;;;11.30;4.78;;;16.90;99.90;;;;;;5118296;23;20291;-87
2023/06/30 05:55:44;;;;;;;12.73;5.18;;;16.90;99.90;;;;;;5093429;23;20157;-87
2023/06/30 05:57:44;;;;;;;19.45;5.63;;;17.00;99.90;;;;;;5093371;23;20176;-87
2023/06/30 05:59:45;;;;;;;10.65;5.03;;;17.10;99.90;;;;;;5093544;23;20187;-87
2023/06/30 06:01:46;;;;;;;14.27;5.18;;;17.10;99.90;;;;;;5093230;23;20155;-87
2023/06/30 06:03:47;;;;;;;16.63;5.43;;;17.00;99.90;;;;;;5093552;23;20607;-87
2023/06/30 06:05:48;;;;;;;15.25;5.78;;;17.00;99.90;;;;;;5093848;23;20161;-87
2023/06/30 06:07:49;;;;;;;19.27;6.57;;;17.10;99.90;;;;;;5144303;23;20171;-87
2023/06/30 06:09:50;;;;;;;16.42;5.97;;;17.00;99.90;;;;;;5117829;23;20156;-90
2023/06/30 06:11:50;;;;;;;19.08;5.85;;;17.10;99.90;;;;;;5093107;23;20652;-88
2023/06/30 06:13:51;;;;;;;10.88;5.70;;;17.20;99.90;;;;;;5118216;23;20151;-87
2023/06/30 06:15:52;;;;;;;12.77;6.22;;;17.20;99.90;;;;;;5118012;23;20144;-87
2023/06/30 06:17:52;;;;;;;15.55;5.38;;;17.40;99.90;;;;;;5093757;23;20165;-86
2023/06/30 06:19:53;;;;;;;17.23;5.60;;;17.50;99.90;;;;;;5093417;23;20562;-87
2023/06/30 06:21:54;;;;;;;17.02;5.28;;;17.50;99.90;;;;;;5117961;23;20152;-95
2023/06/30 06:23:55;;;;;;;11.13;5.07;;;17.70;99.90;;;;;;5093327;23;20227;-87
2023/06/30 06:25:56;;;;;;;10.68;4.57;;;17.90;99.90;;;;;;5118094;23;20155;-95
2023/06/30 06:27:57;;;;;;;16.55;5.00;;;17.90;99.90;;;;;;5093285;23;20654;-87
2023/06/30 06:29:57;;;;;;;11.68;4.50;;;17.80;99.90;;;;;;5093355;23;20156;-86
2023/06/30 06:31:58;;;;;;;10.35;4.65;;;17.90;99.90;;;;;;5118661;23;20160;-95
2023/06/30 06:33:59;;;;;;;9.77;4.60;;;17.90;99.90;;;;;;5093531;23;20633;-88
2023/06/30 06:36:00;;;;;;;9.95;4.25;;;18.10;99.90;;;;;;5092958;23;20599;-87
2023/06/30 06:38:01;;;;;;;17.77;5.07;;;18.30;99.90;;;;;;5117273;23;20626;-87
2023/06/30 06:40:02;;;;;;;15.25;4.85;;;18.30;99.90;;;;;;5093507;23;20149;-88
2023/06/30 06:42:03;;;;;;;15.18;4.60;;;18.40;99.90;;;;;;5093436;23;20204;-87
2023/06/30 06:44:04;;;;;;;12.20;4.18;;;18.60;99.90;;;;;;5093325;23;20153;-87
2023/06/30 06:46:05;;;;;;;10.90;4.00;;;18.60;99.90;;;;;;5118430;23;20156;-87
2023/06/30 06:48:23;;;;;;;10.85;3.83;;;18.70;99.90;;;;;;5117805;23;20485;-87
2023/06/30 06:50:24;;;;;;;9.90;3.67;;;18.80;99.90;;;;;;5093417;23;20181;-87
2023/06/30 06:52:24;;;;;;;10.70;3.50;;;18.60;99.90;;;;;;5117843;23;20153;-87
2023/06/30 06:54:25;;;;;;;8.68;3.40;;;18.50;99.90;;;;;;5118039;23;20140;-87
2023/06/30 06:56:26;;;;;;;12.10;4.03;;;18.50;99.90;;;;;;5093208;23;20157;-95
2023/06/30 06:58:29;;;;;;;10.98;3.63;;;18.60;99.90;;;;;;5117452;23;20226;-86
2023/06/30 07:00:30;;;;;;;8.70;3.03;;;18.60;99.90;;;;;;5144016;23;20144;-87
2023/06/30 07:02:31;;;;;;;9.43;2.75;;;18.60;99.90;;;;;;5093001;23;20185;-87
2023/06/30 07:04:31;;;;;;;12.25;3.05;;;18.90;99.90;;;;;;5093015;23;20161;-87
2023/06/30 07:06:32;;;;;;;8.73;3.05;;;19.10;99.90;;;;;;5117454;23;20524;-89
2023/06/30 07:08:36;;;;;;;8.52;3.00;;;19.00;99.90;;;;;;5117654;23;20570;-86
2023/06/30 07:10:37;;;;;;;8.85;2.80;;;19.40;99.90;;;;;;5117561;23;20231;-86
2023/06/30 07:12:38;;;;;;;8.45;2.67;;;19.60;99.90;;;;;;5144341;23;20148;-88
2023/06/30 07:14:38;;;;;;;10.15;2.70;;;19.70;99.90;;;;;;5093045;23;20587;-87
2023/06/30 07:16:39;;;;;;;7.82;2.60;;;20.20;99.90;;;;;;5117357;23;20606;-88
2023/06/30 07:18:40;;;;;;;15.10;2.70;;;20.40;99.90;;;;;;5093020;23;20605;-87
2023/06/30 07:20:40;;;;;;;9.65;3.28;;;21.40;99.90;;;;;;5092943;23;20624;-87
2023/06/30 07:22:41;;;;;;;13.10;3.10;;;22.80;99.90;;;;;;5092878;23;20145;-88
2023/06/30 07:24:42;;;;;;;6.80;2.60;;;24.00;99.90;;;;;;5092884;23;20163;-87
2023/06/30 07:26:42;;;;;;;6.18;2.28;;;25.40;99.90;;;;;;5092179;23;20219;-88
2023/06/30 07:28:43;;;;;;;9.35;2.85;;;27.00;99.90;;;;;;5117306;23;20180;-88
2023/06/30 07:30:44;;;;;;;11.73;2.83;;;28.50;99.90;;;;;;5117135;23;20184;-88
2023/06/30 07:32:44;;;;;;;7.78;2.70;;;28.80;99.90;;;;;;5092473;23;20600;-89
2023/06/30 07:34:45;;;;;;;8.00;2.78;;;29.00;99.90;;;;;;5093608;23;20153;-88
2023/06/30 07:36:46;;;;;;;9.27;2.60;;;28.70;99.90;;;;;;5094466;23;20149;-87
2023/06/30 07:38:47;;;;;;;13.20;2.53;;;28.50;99.90;;;;;;5094511;23;20655;-88
2023/06/30 07:40:47;;;;;;;8.35;2.42;;;28.50;99.90;;;;;;5118874;23;20163;-86
2023/06/30 07:42:48;;;;;;;7.90;2.20;;;28.80;99.90;;;;;;5119107;23;20592;-86
2023/06/30 07:44:49;;;;;;;8.07;2.72;;;29.10;99.90;;;;;;5094196;23;20156;-88
2023/06/30 07:46:50;;;;;;;6.07;2.20;;;29.00;99.90;;;;;;5094135;23;20156;-86
2023/06/30 07:48:50;;;;;;;4.95;2.17;;;29.00;99.90;;;;;;5094071;23;20251;-86
2023/06/30 07:50:51;;;;;;;5.55;1.85;;;29.20;99.90;;;;;;5094332;23;20192;-86
2023/06/30 07:52:52;;;;;;;7.55;1.92;;;29.00;99.90;;;;;;5119482;23;20266;-94
2023/06/30 07:54:55;;;;;;;3.83;1.50;;;29.40;99.90;;;;;;5094871;23;20177;-94
2023/06/30 07:56:56;;;;;;;7.13;1.40;;;29.40;99.90;;;;;;5119645;23;20167;-94
2023/06/30 07:58:56;;;;;;;6.25;1.80;;;29.70;99.90;;;;;;5094955;23;20216;-93
2023/06/30 08:00:57;;;;;;;5.03;1.50;;;30.20;99.90;;;;;;5094698;23;20157;-94
2023/06/30 08:02:58;;;;;;;9.07;1.83;;;30.60;99.90;;;;;;5096397;23;20145;-96
2023/06/30 08:04:59;;;;;;;4.95;1.63;;;31.20;99.90;;;;;;5119871;23;20160;-95
2023/06/30 08:07:00;;;;;;;6.35;1.55;;;31.30;99.90;;;;;;5120233;23;20615;-94
2023/06/30 08:09:01;;;;;;;5.78;1.55;;;31.00;99.90;;;;;;5095084;23;20571;-95
2023/06/30 08:11:02;;;;;;;8.75;2.10;;;31.20;99.90;;;;;;5119596;23;20191;-95
2023/06/30 08:13:03;;;;;;;12.20;1.65;;;31.60;99.90;;;;;;5119646;23;20144;-94
2023/06/30 08:15:04;;;;;;;8.45;1.70;;;32.60;99.90;;;;;;5095713;23;20155;-95
2023/06/30 08:17:05;;;;;;;6.00;1.70;;;32.80;99.90;;;;;;5095130;23;20153;-94
2023/06/30 08:19:06;;;;;;;6.13;1.80;;;32.60;99.90;;;;;;5095382;23;20196;-92
2023/06/30 08:21:07;;;;;;;5.70;1.48;;;32.40;99.90;;;;;;5097698;23;20233;-93
2023/06/30 08:23:07;;;;;;;4.95;1.73;;;32.40;99.90;;;;;;5103996;23;20176;-92
2023/06/30 08:25:08;;;;;;;2.75;0.90;;;32.50;99.90;;;;;;5102004;23;20196;-93
2023/06/30 08:27:09;;;;;;;9.20;1.38;;;32.30;99.90;;;;;;5105068;23;20176;-93
2023/06/30 08:29:10;;;;;;;3.85;1.30;;;32.70;99.90;;;;;;5103131;23;20211;-93
2023/06/30 08:31:11;;;;;;;5.38;1.58;;;33.20;99.90;;;;;;5103266;23;20168;-92
2023/06/30 08:33:13;;;;;;;7.25;1.55;;;33.80;99.90;;;;;;5105016;23;20156;-95
2023/06/30 08:35:13;;;;;;;4.13;1.13;;;33.80;99.90;;;;;;5099924;23;20152;-92
2023/06/30 08:37:14;;;;;;;2.63;1.42;;;34.20;99.90;;;;;;5100008;23;20156;-93
2023/06/30 08:39:15;;;;;;;4.38;1.20;;;33.80;99.90;;;;;;5097897;23;20606;-95
2023/06/30 08:41:16;;;;;;;4.53;1.40;;;32.70;99.90;;;;;;5095523;23;20200;-94
2023/06/30 08:43:22;;;;;;;5.93;1.40;;;31.90;99.90;;;;;;5095694;23;20216;-95
2023/06/30 08:45:27;;;;;;;6.82;1.45;;;31.10;99.90;;;;;;5123408;23;20148;-93
2023/06/30 08:47:32;;;;;;;3.70;1.20;;;29.70;99.90;;;;;;5096185;23;20208;-94
2023/06/30 08:49:33;;;;;;;3.38;1.40;;;29.00;99.90;;;;;;5095697;23;20313;-93
2023/06/30 08:51:34;;;;;;;5.25;1.20;;;28.70;99.90;;;;;;5119577;23;20151;-93
2023/06/30 08:53:36;;;;;;;7.38;1.48;;;28.00;99.90;;;;;;5094521;23;20184;-93
2023/06/30 08:55:37;;;;;;;6.00;1.30;;;27.60;99.90;;;;;;5094767;23;20152;-95
2023/06/30 08:57:41;;;;;;;5.03;1.38;;;27.40;99.90;;;;;;5119139;23;20262;-94
2023/06/30 08:59:43;;;;;;;5.32;1.40;;;27.20;99.90;;;;;;5094916;23;20152;-91
2023/06/30 09:01:45;;;;;;;3.70;1.38;;;27.20;99.90;;;;;;5094681;23;20246;-92
2023/06/30 09:03:46;;;;;;;6.85;1.40;;;26.60;99.90;;;;;;5095652;23;20156;-95
2023/06/30 09:05:49;;;;;;;8.70;1.60;;;26.70;99.90;;;;;;5094556;23;20550;-92
2023/06/30 09:07:54;;;;;;;6.32;1.30;;;26.30;99.90;;;;;;5094293;23;20183;-91
2023/06/30 09:10:02;;;;;;;4.85;1.20;;;26.00;99.90;;;;;;5119044;23;20187;-92
2023/06/30 09:12:03;;;;;;;3.40;1.40;;;25.90;99.90;;;;;;5094748;23;20144;-92
2023/06/30 09:14:07;;;;;;;6.47;1.60;;;25.80;99.90;;;;;;5101415;23;20153;-90
2023/06/30 09:16:12;;;;;;;9.82;1.40;;;25.90;99.90;;;;;;5108701;23;20145;-92
2023/06/30 09:18:13;;;;;;;4.80;1.10;;;25.90;99.90;;;;;;5117003;23;20177;-93
2023/06/30 09:20:14;;;;;;;8.98;1.33;;;26.10;99.90;;;;;;5102099;23;20157;-92
2023/06/30 09:22:15;;;;;;;7.25;1.35;;;26.00;99.90;;;;;;5093908;23;20193;-92
2023/06/30 09:24:15;;;;;;;5.93;1.48;;;26.00;99.90;;;;;;5093702;23;20220;-90
2023/06/30 09:26:17;;;;;;;3.30;0.93;;;26.00;99.90;;;;;;5093878;23;20240;-92
2023/06/30 09:28:18;;;;;;;5.38;1.15;;;25.90;99.90;;;;;;5093801;23;20546;-92
2023/06/30 09:30:30;;;;;;;9.32;1.30;;;26.00;99.90;;;;;;5118725;23;20152;-94
2023/06/30 09:32:32;;;;;;;3.95;1.30;;;25.70;99.90;;;;;;5094247;23;20149;-92
2023/06/30 09:34:33;;;;;;;8.10;1.08;;;25.70;99.90;;;;;;5118517;23;20156;-93
2023/06/30 09:36:34;;;;;;;7.72;1.80;;;25.50;99.90;;;;;;5094342;23;20153;-92
2023/06/30 09:38:35;;;;;;;7.15;1.30;;;25.70;99.90;;;;;;5118464;23;20164;-92
2023/06/30 09:40:36;;;;;;;12.15;1.58;;;25.40;99.90;;;;;;5093780;23;20236;-92
2023/06/30 09:42:37;;;;;;;12.05;1.45;;;25.20;99.90;;;;;;5094131;23;20149;-92
2023/06/30 09:44:40;;;;;;;7.05;1.52;;;25.20;99.90;;;;;;5094058;23;20187;-92
2023/06/30 09:46:51;;;;;;;6.03;1.00;;;25.40;99.90;;;;;;5094459;23;20157;-92
2023/06/30 09:48:55;;;;;;;4.20;1.10;;;25.80;99.90;;;;;;5094135;23;20227;-93
2023/06/30 09:50:56;;;;;;;3.67;0.95;;;25.70;99.90;;;;;;5094679;23;20153;-92
2023/06/30 09:52:58;;;;;;;3.53;1.17;;;25.80;99.90;;;;;;5094550;23;20172;-92
2023/06/30 09:55:09;;;;;;;4.15;1.15;;;25.80;99.90;;;;;;5119146;23;20156;-93
2023/06/30 09:57:10;;;;;;;3.80;1.25;;;25.90;99.90;;;;;;5094795;23;20271;-92
2023/06/30 09:59:12;;;;;;;5.43;1.10;;;25.70;99.90;;;;;;5096995;23;20155;-92
2023/06/30 10:01:18;;;;;;;5.13;1.55;;;25.90;99.90;;;;;;5095232;23;20278;-93
2023/06/30 10:03:19;;;;;;;6.60;1.33;;;26.40;99.90;;;;;;5095584;23;20295;-92
2023/06/30 10:05:20;;;;;;;3.97;1.10;;;27.10;99.90;;;;;;5096081;23;20149;-94
2023/06/30 10:07:20;;;;;;;6.93;1.40;;;27.60;99.90;;;;;;5119478;23;20619;-92
2023/06/30 10:09:24;;;;;;;7.63;1.50;;;27.60;99.90;;;;;;5095023;23;20339;-94
2023/06/30 10:11:27;;;;;;;6.78;1.20;;;27.50;99.90;;;;;;5095106;23;20227;-93
2023/06/30 10:13:29;;;;;;;4.18;1.02;;;27.10;99.90;;;;;;5093803;23;20153;-91
2023/06/30 10:15:31;;;;;;;5.20;1.13;;;27.40;99.90;;;;;;5118955;23;20207;-93
2023/06/30 10:17:32;;;;;;;4.15;1.17;;;27.60;99.90;;;;;;5093488;23;20176;-92
2023/06/30 10:19:35;;;;;;;3.63;1.20;;;27.80;99.90;;;;;;5094094;23;20153;-93
2023/06/30 10:21:35;;;;;;;4.30;1.05;;;28.10;99.90;;;;;;5118217;23;20613;-92
2023/06/30 10:23:39;;;;;;;5.15;1.27;;;28.00;99.90;;;;;;5093937;23;20148;-93
2023/06/30 10:25:40;;;;;;;4.10;1.13;;;27.90;99.90;;;;;;5118115;23;20163;-93
2023/06/30 10:27:41;;;;;;;3.35;1.20;;;27.30;99.90;;;;;;5093435;23;20165;-92